Time;durP1;ratioP1;P1;durP2;ratioP2;P2;SDS_P1;SDS_P2;PMS_P1;PMS_P2;Temp;Humidity;BMP_temperature;BMP_pressure;BME280_temperature;BME280_humidity;BME280_pressure;Samples;Min_cycle;Max_cycle;Signal;HPM_P1;HPM_P2
2022/05/23 00:00:51;;;;;;;;;;;19.80;50.90;;;;;;5124532;28;20291;-48
2022/05/23 00:03:17;;;;;;;;;;;19.70;50.40;;;;;;5120301;28;20294;-46
2022/05/23 00:05:43;;;;;;;;;;;20.00;52.30;;;;;;5120889;28;19927;-44
2022/05/23 00:08:09;;;;;;;;;;;21.00;52.40;;;;;;5126495;28;20422;-45
2022/05/23 00:10:35;;;;;;;;;;;21.80;50.70;;;;;;5121108;28;20930;-45
2022/05/23 00:13:01;;;;;;;;;;;20.60;51.40;;;;;;5120077;27;20330;-44
2022/05/23 00:15:26;;;;;;;;;;;20.20;51.40;;;;;;5126393;28;19927;-46
2022/05/23 00:17:52;;;;;;;;;;;19.80;51.10;;;;;;5120425;28;20290;-47
2022/05/23 00:20:19;;;;;;;;;;;20.10;52.20;;;;;;5123453;28;20405;-50
2022/05/23 00:22:45;;;;;;;;;;;21.10;52.40;;;;;;5104027;28;19927;-47
2022/05/23 00:25:11;;;;;;;;;;;21.80;50.20;;;;;;5120851;28;20290;-45
2022/05/23 00:27:39;;;;;;;;;;;20.70;51.10;;;;;;5126575;28;20378;-44
2022/05/23 00:30:06;;;;;;;;;;;20.10;51.20;;;;;;5120810;28;19963;-44
2022/05/23 00:35:19;;;;;;;;;;;19.80;50.60;;;;;;5126382;28;19975;-46
2022/05/23 00:37:45;;;;;;;;;;;20.60;52.80;;;;;;5118371;28;20002;-47
2022/05/23 00:40:25;;;;;;;;;;;21.60;51.40;;;;;;5119830;28;20023;-44
2022/05/23 00:45:36;;;;;;;;;;;20.40;51.00;;;;;;5120940;28;19930;-46
2022/05/23 00:48:01;;;;;;;;;;;19.80;51.00;;;;;;5121042;28;20026;-45
2022/05/23 00:50:27;;;;;;;;;;;19.80;52.10;;;;;;5107700;28;19923;-49
2022/05/23 00:52:54;;;;;;;;;;;20.80;52.70;;;;;;5101644;28;19985;-45
2022/05/23 00:55:24;;;;;;;;;;;21.80;50.70;;;;;;5100679;28;19924;-47
2022/05/23 00:57:50;;;;;;;;;;;20.80;51.30;;;;;;5124295;28;20433;-44
2022/05/23 01:00:16;;;;;;;;;;;20.10;51.40;;;;;;5120211;28;20397;-48
2022/05/23 01:02:42;;;;;;;;;;;19.80;51.10;;;;;;5125854;28;19927;-46
2022/05/23 01:05:08;;;;;;;;;;;19.80;50.50;;;;;;5120231;28;19923;-46
2022/05/23 01:07:34;;;;;;;;;;;20.30;53.00;;;;;;5120514;28;19923;-44
2022/05/23 01:10:00;;;;;;;;;;;21.30;51.60;;;;;;5125818;28;19985;-46
2022/05/23 01:12:26;;;;;;;;;;;21.40;50.50;;;;;;5120124;28;19980;-44
2022/05/23 01:14:53;;;;;;;;;;;20.30;51.60;;;;;;5082337;28;20698;-48
2022/05/23 01:17:18;;;;;;;;;;;19.90;51.10;;;;;;5125149;28;19927;-47
2022/05/23 01:19:44;;;;;;;;;;;19.70;50.80;;;;;;5119949;28;20000;-46
2022/05/23 01:22:13;;;;;;;;;;;20.00;52.10;;;;;;5125566;28;19928;-45
2022/05/23 01:24:46;;;;;;;;;;;21.00;52.50;;;;;;5121935;27;19928;-47
2022/05/23 01:27:12;;;;;;;;;;;21.80;50.40;;;;;;5123886;28;19931;-48
2022/05/23 01:29:37;;;;;;;;;;;20.40;51.50;;;;;;5129232;28;20237;-46
2022/05/23 01:32:04;;;;;;;;;;;20.00;51.40;;;;;;5122039;28;19930;-46
2022/05/23 01:34:29;;;;;;;;;;;19.80;50.70;;;;;;5121875;28;19931;-45
2022/05/23 01:36:58;;;;;;;;;;;19.60;50.70;;;;;;5128657;28;19931;-43
2022/05/23 01:39:24;;;;;;;;;;;20.50;53.10;;;;;;5105269;28;19927;-47
2022/05/23 01:41:49;;;;;;;;;;;21.50;51.30;;;;;;5123873;28;19952;-45
2022/05/23 01:44:15;;;;;;;;;;;21.10;50.90;;;;;;5129013;28;19923;-44
2022/05/23 01:46:41;;;;;;;;;;;20.20;51.30;;;;;;5105267;28;19930;-44
2022/05/23 01:49:07;;;;;;;;;;;19.80;51.10;;;;;;5129070;28;19928;-49
2022/05/23 01:51:32;;;;;;;;;;;19.80;50.40;;;;;;5120794;28;19924;-45
2022/05/23 01:53:58;;;;;;;;;;;20.20;52.90;;;;;;5122647;28;19923;-47
2022/05/23 01:56:24;;;;;;;;;;;21.20;52.00;;;;;;5128525;28;19933;-43
2022/05/23 02:01:34;;;;;;;;;;;20.40;51.60;;;;;;5123364;28;19928;-47
2022/05/23 02:04:00;;;;;;;;;;;19.80;51.00;;;;;;5128617;28;19928;-45
2022/05/23 02:06:26;;;;;;;;;;;19.80;52.30;;;;;;5123079;28;19938;-47
2022/05/23 02:08:51;;;;;;;;;;;20.90;52.60;;;;;;5121765;28;20293;-53
2022/05/23 02:11:17;;;;;;;;;;;21.80;50.50;;;;;;5126847;28;19927;-46
2022/05/23 02:13:43;;;;;;;;;;;20.50;51.50;;;;;;5122671;28;19929;-49
2022/05/23 02:16:09;;;;;;;;;;;20.20;51.00;;;;;;5128636;28;19927;-46
2022/05/23 02:18:35;;;;;;;;;;;19.90;50.70;;;;;;5123182;28;20282;-48
2022/05/23 02:21:01;;;;;;;;;;;19.80;51.80;;;;;;5122907;28;19988;-45
2022/05/23 02:23:26;;;;;;;;;;;20.80;52.80;;;;;;5128432;28;19927;-45
2022/05/23 02:25:52;;;;;;;;;;;21.70;50.80;;;;;;5123065;28;19924;-48
2022/05/23 02:28:18;;;;;;;;;;;20.80;51.30;;;;;;5101621;28;19932;-48
2022/05/23 02:30:47;;;;;;;;;;;20.20;51.20;;;;;;5127389;28;19968;-46
2022/05/23 02:33:13;;;;;;;;;;;19.80;51.00;;;;;;5122436;28;19924;-45
2022/05/23 02:35:39;;;;;;;;;;;19.70;50.60;;;;;;5127771;27;19927;-46
2022/05/23 02:38:05;;;;;;;;;;;20.60;52.80;;;;;;5121851;28;19923;-45
2022/05/23 02:40:31;;;;;;;;;;;21.60;51.00;;;;;;5122579;28;19928;-44
2022/05/23 02:42:57;;;;;;;;;;;21.00;50.70;;;;;;5091086;28;19950;-45
2022/05/23 02:45:22;;;;;;;;;;;20.20;51.30;;;;;;5121317;28;19931;-45
2022/05/23 02:47:49;;;;;;;;;;;19.80;50.90;;;;;;5120722;28;19923;-46
2022/05/23 02:50:15;;;;;;;;;;;19.90;52.70;;;;;;5127306;28;19928;-47
2022/05/23 02:52:41;;;;;;;;;;;20.90;52.50;;;;;;5122339;28;19927;-44
2022/05/23 02:55:07;;;;;;;;;;;21.60;50.30;;;;;;5127819;28;19967;-51
2022/05/23 02:57:32;;;;;;;;;;;20.30;51.70;;;;;;5123155;28;19931;-47
2022/05/23 02:59:58;;;;;;;;;;;20.10;50.90;;;;;;5122646;28;19923;-45
2022/05/23 03:05:08;;;;;;;;;;;20.20;53.10;;;;;;5119764;28;20026;-46
2022/05/23 03:07:34;;;;;;;;;;;21.40;51.50;;;;;;5121649;28;19927;-44
2022/05/23 03:10:00;;;;;;;;;;;21.30;50.60;;;;;;5127554;28;19931;-44
2022/05/23 03:12:27;;;;;;;;;;;20.20;51.40;;;;;;5122208;28;19934;-45
2022/05/23 03:14:53;;;;;;;;;;;19.80;51.10;;;;;;5122183;28;19937;-44
2022/05/23 03:17:19;;;;;;;;;;;19.80;50.30;;;;;;5127487;28;19930;-45
2022/05/23 03:19:45;;;;;;;;;;;20.10;52.90;;;;;;5122000;28;20021;-45
2022/05/23 03:27:40;;;;;;;;;;;20.30;51.50;;;;;;5121528;28;19937;-46
2022/05/23 03:30:06;;;;;;;;;;;19.80;51.10;;;;;;5123301;28;19923;-56
2022/05/23 03:32:32;;;;;;;;;;;19.60;51.00;;;;;;5125941;28;19928;-48
2022/05/23 03:34:57;;;;;;;;;;;20.30;53.20;;;;;;5103351;28;19938;-50
2022/05/23 03:37:24;;;;;;;;;;;21.30;52.00;;;;;;5127356;28;20367;-46
2022/05/23 03:39:50;;;;;;;;;;;21.50;50.60;;;;;;5121559;28;20294;-44
2022/05/23 03:42:15;;;;;;;;;;;20.30;51.70;;;;;;5119460;28;19974;-45
2022/05/23 03:44:41;;;;;;;;;;;20.10;50.80;;;;;;5126693;28;20022;-46
2022/05/23 03:47:07;;;;;;;;;;;19.80;50.90;;;;;;5102991;27;19923;-45
2022/05/23 03:49:33;;;;;;;;;;;20.30;52.90;;;;;;5121643;28;19939;-49
2022/05/23 03:51:59;;;;;;;;;;;21.30;52.10;;;;;;5126985;28;20294;-48
2022/05/23 03:54:25;;;;;;;;;;;21.40;50.60;;;;;;5121596;28;19931;-48
2022/05/23 03:56:50;;;;;;;;;;;20.50;51.10;;;;;;5107291;28;19924;-44
2022/05/23 03:59:16;;;;;;;;;;;19.90;51.40;;;;;;5119579;28;19996;-46
2022/05/23 04:01:42;;;;;;;;;;;19.80;50.80;;;;;;5120073;28;20278;-46
2022/05/23 04:04:08;;;;;;;;;;;19.70;50.60;;;;;;5126357;28;19923;-47
2022/05/23 04:06:35;;;;;;;;;;;20.60;52.80;;;;;;5121391;28;19928;-46
2022/05/23 04:09:01;;;;;;;;;;;21.50;51.40;;;;;;5121350;28;20250;-45
2022/05/23 04:11:27;;;;;;;;;;;20.60;51.60;;;;;;5126557;28;19924;-44
2022/05/23 04:13:52;;;;;;;;;;;20.00;51.90;;;;;;5121140;28;19932;-44
2022/05/23 04:16:18;;;;;;;;;;;19.80;51.20;;;;;;5126300;28;19981;-48
2022/05/23 04:18:44;;;;;;;;;;;19.70;50.70;;;;;;5118719;28;19928;-48
2022/05/23 04:21:10;;;;;;;;;;;20.40;53.20;;;;;;5120741;28;19927;-45
2022/05/23 04:23:36;;;;;;;;;;;21.40;51.60;;;;;;5126366;28;19962;-48
2022/05/23 04:26:02;;;;;;;;;;;21.30;50.40;;;;;;5120917;28;19923;-45
2022/05/23 04:28:31;;;;;;;;;;;20.30;51.30;;;;;;5120965;28;19928;-44
2022/05/23 04:30:57;;;;;;;;;;;19.90;51.00;;;;;;5126347;28;19923;-46
2022/05/23 04:36:07;;;;;;;;;;;20.20;52.80;;;;;;5119112;28;20557;-45
2022/05/23 04:38:33;;;;;;;;;;;21.30;51.50;;;;;;5124980;28;19931;-45
2022/05/23 04:40:59;;;;;;;;;;;21.50;50.20;;;;;;5120339;28;20378;-45
2022/05/23 04:43:24;;;;;;;;;;;20.30;51.30;;;;;;5126479;28;19934;-46
2022/05/23 04:45:50;;;;;;;;;;;19.90;51.10;;;;;;5120728;28;19927;-46
2022/05/23 04:51:00;;;;;;;;;;;20.30;52.80;;;;;;5126160;28;19930;-45
2022/05/23 04:53:26;;;;;;;;;;;21.50;51.10;;;;;;5120107;28;19923;-44
2022/05/23 04:55:52;;;;;;;;;;;21.20;50.50;;;;;;5118576;28;20057;-45
2022/05/23 04:58:18;;;;;;;;;;;20.10;51.70;;;;;;5125518;28;20018;-47
2022/05/23 05:00:44;;;;;;;;;;;19.80;51.50;;;;;;5119533;27;19931;-46
2022/05/23 05:03:09;;;;;;;;;;;20.20;53.40;;;;;;5120526;28;20367;-46
2022/05/23 05:05:35;;;;;;;;;;;21.30;52.00;;;;;;5107292;28;19934;-49
2022/05/23 05:08:01;;;;;;;;;;;21.50;50.70;;;;;;5120550;28;19923;-48
2022/05/23 05:10:27;;;;;;;;;;;20.30;51.70;;;;;;5125917;28;20037;-47
2022/05/23 05:12:53;;;;;;;;;;;20.00;51.40;;;;;;5118417;28;19923;-45
2022/05/23 05:15:19;;;;;;;;;;;19.80;51.00;;;;;;5118899;28;19938;-48
2022/05/23 05:17:45;;;;;;;;;;;19.80;52.70;;;;;;5125259;28;20017;-47
2022/05/23 05:20:11;;;;;;;;;;;20.80;54.00;;;;;;5120228;28;20426;-47
2022/05/23 05:22:37;;;;;;;;;;;21.70;52.60;;;;;;5120116;28;20037;-44
2022/05/23 05:25:04;;;;;;;;;;;20.80;52.50;;;;;;5106787;28;19946;-45
2022/05/23 05:27:29;;;;;;;;;;;20.20;52.20;;;;;;5120218;28;20014;-48
2022/05/23 05:29:55;;;;;;;;;;;19.80;51.80;;;;;;5125335;28;20444;-45
2022/05/23 05:32:31;;;;;;;;;;;20.10;54.50;;;;;;5117838;28;19923;-46
2022/05/23 05:34:58;;;;;;;;;;;21.10;54.70;;;;;;5119478;28;20001;-45
2022/05/23 05:37:31;;;;;;;;;;;21.80;52.90;;;;;;5125501;28;19936;-55
2022/05/23 05:39:57;;;;;;;;;;;22.00;53.80;;;;;;5116296;28;20083;-56
2022/05/23 05:42:26;;;;;;;;;;;21.90;55.10;;;;;;5119992;28;19923;-57
2022/05/23 05:44:53;;;;;;;;;;;22.00;55.70;;;;;;5107473;28;19938;-57
2022/05/23 05:47:19;;;;;;;;;;;22.00;56.00;;;;;;5119926;28;20130;-56
2022/05/23 05:49:46;;;;;;;;;;;22.10;55.80;;;;;;5117826;28;19923;-56
2022/05/23 05:52:13;;;;;;;;;;;22.20;55.70;;;;;;5124046;28;19923;-55
2022/05/23 05:54:39;;;;;;;;;;;22.10;55.90;;;;;;5119466;28;19975;-56
2022/05/23 05:57:05;;;;;;;;;;;22.20;55.50;;;;;;5124295;28;19927;-53
2022/05/23 05:59:30;;;;;;;;;;;22.20;55.60;;;;;;5120973;28;19932;-53
2022/05/23 06:01:56;;;;;;;;;;;22.30;55.70;;;;;;5119740;28;19924;-55
2022/05/23 06:04:22;;;;;;;;;;;22.30;55.40;;;;;;5125329;28;20372;-54
2022/05/23 06:12:33;;;;;;;;;;;22.10;55.20;;;;;;5062112;28;19931;-58
2022/05/23 06:14:59;;;;;;;;;;;21.60;55.00;;;;;;5110784;28;19927;-57
2022/05/23 06:17:25;;;;;;;;;;;21.70;56.00;;;;;;5122889;28;20034;-56
2022/05/23 06:19:51;;;;;;;;;;;21.70;57.00;;;;;;5128558;28;19966;-58
2022/05/23 06:22:17;;;;;;;;;;;21.80;56.60;;;;;;5123019;28;20394;-57
2022/05/23 06:24:44;;;;;;;;;;;21.80;56.20;;;;;;5122736;28;19923;-58
2022/05/23 06:27:10;;;;;;;;;;;21.80;56.00;;;;;;5125945;28;19929;-57
2022/05/23 06:29:36;;;;;;;;;;;21.80;55.80;;;;;;5122087;28;20021;-59
2022/05/23 06:32:02;;;;;;;;;;;21.80;55.70;;;;;;5124305;28;20382;-57
2022/05/23 06:34:28;;;;;;;;;;;21.90;55.50;;;;;;5126924;28;19924;-59
2022/05/23 06:36:55;;;;;;;;;;;21.90;55.30;;;;;;5122560;28;19939;-58
2022/05/23 06:39:20;;;;;;;;;;;21.90;55.20;;;;;;5109901;28;19975;-58
2022/05/23 06:41:47;;;;;;;;;;;21.90;55.40;;;;;;5122738;28;19927;-58
2022/05/23 06:44:12;;;;;;;;;;;22.00;55.20;;;;;;5121306;28;20026;-58
2022/05/23 06:46:38;;;;;;;;;;;21.90;55.00;;;;;;5126378;28;19927;-59
2022/05/23 06:49:06;;;;;;;;;;;22.00;54.90;;;;;;5122205;28;19931;-58
2022/05/23 06:51:35;;;;;;;;;;;22.00;54.80;;;;;;5122227;28;19923;-59
2022/05/23 06:54:00;;;;;;;;;;;22.00;54.60;;;;;;5127998;28;20026;-57
2022/05/23 06:56:28;;;;;;;;;;;22.00;54.50;;;;;;5122445;28;19923;-59
2022/05/23 06:58:54;;;;;;;;;;;22.00;54.30;;;;;;5127968;28;19927;-59
2022/05/23 07:01:20;;;;;;;;;;;22.00;54.20;;;;;;5104537;28;20010;-58
2022/05/23 07:03:46;;;;;;;;;;;22.00;54.10;;;;;;5119891;28;19930;-59
2022/05/23 07:14:26;;;;;;;;;;;22.00;53.70;;;;;;5127814;28;19927;-58
2022/05/23 07:16:53;;;;;;;;;;;22.10;53.40;;;;;;5122537;28;20308;-59
2022/05/23 07:19:19;;;;;;;;;;;22.00;53.40;;;;;;5122428;28;20018;-58
2022/05/23 07:21:44;;;;;;;;;;;21.90;53.70;;;;;;5125232;27;19960;-58
2022/05/23 07:24:11;;;;;;;;;;;22.00;53.50;;;;;;5120587;28;19967;-59
2022/05/23 07:26:37;;;;;;;;;;;22.10;53.20;;;;;;5101584;28;20407;-59
2022/05/23 07:29:03;;;;;;;;;;;21.90;53.80;;;;;;5127363;28;19970;-59
2022/05/23 07:31:29;;;;;;;;;;;22.10;53.60;;;;;;5121451;27;19954;-59
2022/05/23 07:33:55;;;;;;;;;;;22.10;53.20;;;;;;5124849;28;19937;-58
2022/05/23 07:36:21;;;;;;;;;;;22.20;53.10;;;;;;5125430;27;19928;-58
2022/05/23 07:38:47;;;;;;;;;;;22.20;53.10;;;;;;5121474;28;19935;-55
2022/05/23 07:41:13;;;;;;;;;;;21.80;54.40;;;;;;5125154;28;20279;-49
2022/05/23 07:43:39;;;;;;;;;;;20.10;56.20;;;;;;5121569;28;20404;-45
2022/05/23 07:46:09;;;;;;;;;;;20.30;59.40;;;;;;5121252;28;19923;-44
2022/05/23 07:48:36;;;;;;;;;;;21.10;58.70;;;;;;5126936;28;19924;-46
2022/05/23 07:51:01;;;;;;;;;;;21.60;56.20;;;;;;5121634;28;20041;-48
2022/05/23 08:01:41;;;;;;;;;;;22.10;53.00;;;;;;5120838;28;20293;-44
2022/05/23 08:04:08;;;;;;;;;;;22.20;52.80;;;;;;5126324;28;19945;-45
2022/05/23 08:06:34;;;;;;;;;;;22.30;52.30;;;;;;5121237;28;19923;-47
2022/05/23 08:08:59;;;;;;;;;;;22.30;52.10;;;;;;5123398;28;20157;-48
2022/05/23 08:11:25;;;;;;;;;;;21.20;53.60;;;;;;5126876;28;19934;-45
2022/05/23 08:13:52;;;;;;;;;;;20.50;56.00;;;;;;5121515;28;19935;-45
2022/05/23 08:16:21;;;;;;;;;;;21.20;52.90;;;;;;5105495;28;19930;-45
2022/05/23 08:18:47;;;;;;;;;;;21.50;51.00;;;;;;5119499;28;20386;-44
2022/05/23 08:21:14;;;;;;;;;;;21.80;52.00;;;;;;5120584;28;19927;-44
2022/05/23 08:23:41;;;;;;;;;;;21.80;52.30;;;;;;5126102;28;20387;-45
2022/05/23 08:26:07;;;;;;;;;;;21.90;52.20;;;;;;5120931;28;20293;-45
2022/05/23 08:28:33;;;;;;;;;;;21.90;52.40;;;;;;5120981;28;20153;-45
2022/05/23 08:30:59;;;;;;;;;;;22.00;52.20;;;;;;5106302;28;19924;-43
2022/05/23 08:33:26;;;;;;;;;;;22.10;52.10;;;;;;5120384;27;19927;-45
2022/05/23 08:35:52;;;;;;;;;;;22.10;51.90;;;;;;5101219;28;20015;-51
2022/05/23 08:38:18;;;;;;;;;;;22.20;51.90;;;;;;5123009;28;20023;-44
2022/05/23 08:40:49;;;;;;;;;;;22.30;51.60;;;;;;5122373;28;19923;-48
2022/05/23 08:43:18;;;;;;;;;;;22.00;52.90;;;;;;5126787;28;20036;-51
2022/05/23 08:45:44;;;;;;;;;;;20.30;55.60;;;;;;5104168;28;20535;-46
2022/05/23 08:48:17;;;;;;;;;;;19.80;57.30;;;;;;5102901;28;19923;-47
2022/05/23 08:50:43;;;;;;;;;;;20.20;59.40;;;;;;5108492;28;19946;-49
2022/05/23 08:53:11;;;;;;;;;;;20.80;61.60;;;;;;5120310;28;19924;-46
2022/05/23 08:55:41;;;;;;;;;;;21.40;59.20;;;;;;5120666;28;20235;-47
2022/05/23 08:58:11;;;;;;;;;;;21.70;57.20;;;;;;5106549;28;19923;-45
2022/05/23 09:00:41;;;;;;;;;;;21.90;56.00;;;;;;5086774;28;20064;-44
2022/05/23 09:03:09;;;;;;;;;;;21.90;55.20;;;;;;5102964;28;19923;-46
2022/05/23 09:05:36;;;;;;;;;;;22.00;54.60;;;;;;5126489;28;20434;-45
2022/05/23 09:08:06;;;;;;;;;;;22.20;54.20;;;;;;5102421;28;19988;-44
2022/05/23 09:10:40;;;;;;;;;;;22.20;53.80;;;;;;5125934;28;20018;-50
2022/05/23 09:13:07;;;;;;;;;;;21.40;55.20;;;;;;5121454;28;19950;-47
2022/05/23 09:15:33;;;;;;;;;;;20.10;57.40;;;;;;5120087;28;19923;-46
2022/05/23 09:17:59;;;;;;;;;;;20.40;60.30;;;;;;5125634;28;20293;-46
2022/05/23 09:20:30;;;;;;;;;;;21.20;60.90;;;;;;5120531;28;20401;-44
2022/05/23 09:22:57;;;;;;;;;;;21.80;58.60;;;;;;5102555;28;19924;-44
2022/05/23 09:25:24;;;;;;;;;;;22.00;56.70;;;;;;5126394;28;19927;-45
2022/05/23 09:28:10;;;;;;;;;;;22.10;55.80;;;;;;5121098;28;20049;-45
2022/05/23 09:30:36;;;;;;;;;;;22.20;55.00;;;;;;5066460;28;19933;-45
2022/05/23 09:33:02;;;;;;;;;;;22.20;54.70;;;;;;5124938;28;19928;-46
2022/05/23 09:35:29;;;;;;;;;;;22.20;55.30;;;;;;5120775;28;19923;-47
2022/05/23 09:38:05;;;;;;;;;;;20.70;57.40;;;;;;5122285;28;19923;-56
2022/05/23 09:40:32;;;;;;;;;;;19.90;59.20;;;;;;5107491;28;20439;-46
2022/05/23 09:48:36;;;;;;;;;;;21.40;61.50;;;;;;5111816;28;19939;-47
2022/05/23 09:51:05;;;;;;;;;;;21.80;59.10;;;;;;5123104;28;19930;-45
2022/05/23 09:53:32;;;;;;;;;;;22.00;57.60;;;;;;5124221;28;20438;-44
2022/05/23 09:56:21;;;;;;;;;;;22.10;56.60;;;;;;5129188;28;20018;-44
2022/05/23 09:58:46;;;;;;;;;;;22.20;55.90;;;;;;5109501;28;19930;-44
2022/05/23 10:01:12;;;;;;;;;;;22.30;55.30;;;;;;5124302;28;19923;-46
2022/05/23 10:03:47;;;;;;;;;;;22.30;56.00;;;;;;5111102;28;19924;-45
2022/05/23 10:06:13;;;;;;;;;;;20.50;58.50;;;;;;5124324;28;20183;-47
2022/05/23 10:08:43;;;;;;;;;;;20.00;59.50;;;;;;5109758;28;19924;-50
2022/05/23 10:11:19;;;;;;;;;;;19.80;60.20;;;;;;5124541;28;19927;-51
2022/05/23 10:13:48;;;;;;;;;;;20.80;63.20;;;;;;5126526;28;20349;-46
2022/05/23 10:16:15;;;;;;;;;;;21.40;62.40;;;;;;5110641;28;20030;-45
2022/05/23 10:18:51;;;;;;;;;;;21.40;59.60;;;;;;5124082;28;19927;-47
2022/05/23 10:21:26;;;;;;;;;;;21.30;55.50;;;;;;5104866;28;19934;-49
2022/05/23 10:23:59;;;;;;;;;;;21.20;52.80;;;;;;5127814;28;19949;-47
2022/05/23 10:26:25;;;;;;;;;;;21.50;53.30;;;;;;5122738;28;20351;-46
2022/05/23 10:28:56;;;;;;;;;;;21.80;54.10;;;;;;5126146;28;20391;-46
2022/05/23 10:31:33;;;;;;;;;;;22.00;55.50;;;;;;5111438;28;20018;-46
2022/05/23 10:33:59;;;;;;;;;;;22.00;55.80;;;;;;5108452;28;20018;-48
2022/05/23 10:36:25;;;;;;;;;;;22.10;55.60;;;;;;5106807;28;19928;-46
2022/05/23 10:42:07;;;;;;;;;;;22.20;54.80;;;;;;5111690;28;19947;-46
2022/05/23 10:44:36;;;;;;;;;;;22.30;54.20;;;;;;5125422;28;20030;-47
2022/05/23 10:47:22;;;;;;;;;;;22.30;54.80;;;;;;5127036;28;21303;-50
2022/05/23 10:50:11;;;;;;;;;;;21.30;57.10;;;;;;5106276;28;19975;-46
2022/05/23 10:52:53;;;;;;;;;;;20.10;59.90;;;;;;5105681;28;19923;-46
2022/05/23 10:55:22;;;;;;;;;;;19.80;60.90;;;;;;5088553;28;20423;-51
2022/05/23 10:57:56;;;;;;;;;;;20.80;63.70;;;;;;5108900;28;19927;-50
2022/05/23 11:00:24;;;;;;;;;;;21.30;64.60;;;;;;5122166;28;19968;-49
2022/05/23 11:02:54;;;;;;;;;;;21.80;63.20;;;;;;5108574;28;19930;-46
2022/05/23 11:05:38;;;;;;;;;;;22.00;61.30;;;;;;5105168;28;19927;-46
2022/05/23 11:08:23;;;;;;;;;;;22.20;59.40;;;;;;5124501;28;19923;-47
2022/05/23 11:11:01;;;;;;;;;;;22.20;58.20;;;;;;5122397;28;19928;-55
2022/05/23 11:13:50;;;;;;;;;;;22.20;57.30;;;;;;5127778;28;19924;-47
2022/05/23 11:16:34;;;;;;;;;;;22.30;56.70;;;;;;5074307;28;19923;-52
2022/05/23 11:19:15;;;;;;;;;;;22.30;57.40;;;;;;5123442;28;19966;-47
2022/05/23 11:21:54;;;;;;;;;;;21.20;60.00;;;;;;5126778;28;20010;-53
2022/05/23 11:24:22;;;;;;;;;;;20.30;61.90;;;;;;5123983;28;20019;-50
2022/05/23 11:35:23;;;;;;;;;;;21.30;68.20;;;;;;5122085;28;19923;-47
2022/05/23 11:37:49;;;;;;;;;;;21.60;67.00;;;;;;5123446;28;19998;-55
2022/05/23 11:40:24;;;;;;;;;;;21.80;65.30;;;;;;5123495;28;19923;-46
2022/05/23 11:42:58;;;;;;;;;;;21.90;63.70;;;;;;5120974;28;19935;-46
2022/05/23 11:48:31;;;;;;;;;;;22.20;61.00;;;;;;5127108;28;19925;-47
2022/05/23 11:50:56;;;;;;;;;;;22.30;60.60;;;;;;5123176;28;19931;-50
2022/05/23 11:53:28;;;;;;;;;;;21.20;61.40;;;;;;5105999;28;19931;-58
2022/05/23 11:55:55;;;;;;;;;;;20.20;63.00;;;;;;5108861;28;19988;-58
2022/05/23 11:58:41;;;;;;;;;;;20.00;63.40;;;;;;5122401;28;19923;-46
2022/05/23 12:01:14;;;;;;;;;;;20.70;66.70;;;;;;5122165;28;19923;-54
2022/05/23 12:03:55;;;;;;;;;;;21.10;69.60;;;;;;5127687;28;19968;-48
2022/05/23 12:06:24;;;;;;;;;;;21.40;69.40;;;;;;5121460;28;19971;-50
2022/05/23 12:09:02;;;;;;;;;;;21.70;67.40;;;;;;5122391;27;20314;-53
2022/05/23 12:11:28;;;;;;;;;;;21.90;65.20;;;;;;5126609;28;19964;-50
2022/05/23 12:13:58;;;;;;;;;;;22.00;63.40;;;;;;5121179;28;19927;-48
2022/05/23 12:16:44;;;;;;;;;;;22.10;62.00;;;;;;5107220;28;19938;-52
2022/05/23 12:19:28;;;;;;;;;;;22.30;60.70;;;;;;5126814;28;19930;-47
2022/05/23 12:22:12;;;;;;;;;;;22.30;59.70;;;;;;5126066;28;20399;-51
2022/05/23 12:24:54;;;;;;;;;;;22.20;58.00;;;;;;5126379;28;19952;-48
2022/05/23 12:27:22;;;;;;;;;;;21.70;55.40;;;;;;5093089;28;20390;-47
2022/05/23 12:29:48;;;;;;;;;;;21.70;53.40;;;;;;5090549;28;19973;-49
2022/05/23 12:32:14;;;;;;;;;;;21.80;53.50;;;;;;5107781;28;20006;-47
2022/05/23 12:34:43;;;;;;;;;;;22.10;54.30;;;;;;5107623;28;19935;-47
2022/05/23 12:37:29;;;;;;;;;;;22.10;55.20;;;;;;5091978;28;19971;-45
2022/05/23 12:40:01;;;;;;;;;;;22.10;55.70;;;;;;5100429;28;19955;-50
2022/05/23 12:42:36;;;;;;;;;;;22.20;56.20;;;;;;5108053;28;19931;-50
2022/05/23 12:45:08;;;;;;;;;;;22.30;57.20;;;;;;5121212;28;19932;-49
2022/05/23 12:47:44;;;;;;;;;;;21.10;59.10;;;;;;5121911;28;19934;-54
2022/05/23 12:50:28;;;;;;;;;;;20.00;61.50;;;;;;5104778;28;20016;-48
2022/05/23 12:53:03;;;;;;;;;;;19.80;63.10;;;;;;5120399;28;20014;-46
2022/05/23 12:55:32;;;;;;;;;;;20.90;66.10;;;;;;5124166;28;19935;-47
2022/05/23 12:57:58;;;;;;;;;;;21.30;66.30;;;;;;5127038;28;19924;-52
2022/05/23 13:00:27;;;;;;;;;;;21.80;64.30;;;;;;5117025;28;19928;-46
2022/05/23 13:02:56;;;;;;;;;;;21.90;62.30;;;;;;5106012;28;20310;-52
2022/05/23 13:05:24;;;;;;;;;;;22.10;60.80;;;;;;5122919;28;19978;-46
2022/05/23 13:07:58;;;;;;;;;;;22.20;59.80;;;;;;5101966;28;20283;-47
2022/05/23 13:10:31;;;;;;;;;;;22.30;58.90;;;;;;5124092;28;20171;-54
2022/05/23 13:13:03;;;;;;;;;;;22.20;59.50;;;;;;5100481;28;20363;-54
2022/05/23 13:15:29;;;;;;;;;;;20.60;61.10;;;;;;5120150;28;20010;-49
2022/05/23 13:23:24;;;;;;;;;;;21.10;68.20;;;;;;5114341;28;19928;-47
2022/05/23 13:25:50;;;;;;;;;;;21.50;68.30;;;;;;5129498;28;20393;-50
2022/05/23 13:28:16;;;;;;;;;;;21.80;66.70;;;;;;5102858;28;20344;-49
2022/05/23 13:30:43;;;;;;;;;;;21.90;64.50;;;;;;5105899;28;20018;-47
2022/05/23 13:33:16;;;;;;;;;;;22.00;62.80;;;;;;5109997;28;19927;-47
2022/05/23 13:35:43;;;;;;;;;;;22.20;61.60;;;;;;5123679;28;19975;-48
2022/05/23 13:38:16;;;;;;;;;;;22.30;60.50;;;;;;5126704;28;19954;-47
2022/05/23 13:40:46;;;;;;;;;;;22.30;59.40;;;;;;5130385;28;19968;-48
2022/05/23 13:43:13;;;;;;;;;;;22.40;58.60;;;;;;5092031;28;20413;-57
2022/05/23 13:45:42;;;;;;;;;;;22.30;59.90;;;;;;5123870;28;19999;-59
2022/05/23 13:48:10;;;;;;;;;;;21.00;61.40;;;;;;5126295;28;20018;-52
2022/05/23 13:50:39;;;;;;;;;;;20.20;63.10;;;;;;5122899;28;19924;-50
2022/05/23 13:53:06;;;;;;;;;;;19.90;63.40;;;;;;5128539;28;19942;-49
2022/05/23 13:55:35;;;;;;;;;;;20.00;64.00;;;;;;5123791;28;19924;-47
2022/05/23 13:58:01;;;;;;;;;;;20.90;67.50;;;;;;5103482;28;19924;-48
2022/05/23 14:00:32;;;;;;;;;;;21.30;69.10;;;;;;5130255;28;19924;-48
2022/05/23 14:03:00;;;;;;;;;;;21.50;68.90;;;;;;5127673;28;20010;-46
2022/05/23 14:05:27;;;;;;;;;;;21.80;67.30;;;;;;5103120;28;20000;-48
2022/05/23 14:07:53;;;;;;;;;;;22.00;65.50;;;;;;5126834;28;19923;-47
2022/05/23 14:10:22;;;;;;;;;;;22.10;64.00;;;;;;5102919;28;20391;-48
2022/05/23 14:12:48;;;;;;;;;;;22.10;62.80;;;;;;5122930;28;19979;-49
2022/05/23 14:15:14;;;;;;;;;;;22.30;61.30;;;;;;5110137;28;20324;-48
2022/05/23 14:17:43;;;;;;;;;;;22.30;60.20;;;;;;5123191;28;19923;-54
2022/05/23 14:20:25;;;;;;;;;;;22.40;59.90;;;;;;5128687;28;19945;-53
2022/05/23 14:23:01;;;;;;;;;;;21.50;61.00;;;;;;5126399;28;19950;-54
2022/05/23 14:25:29;;;;;;;;;;;20.20;63.50;;;;;;5102515;28;19927;-50
2022/05/23 14:27:55;;;;;;;;;;;19.90;63.90;;;;;;5127665;28;20388;-44
2022/05/23 14:30:24;;;;;;;;;;;19.80;63.90;;;;;;5103976;28;19953;-48
2022/05/23 14:32:51;;;;;;;;;;;20.30;66.00;;;;;;5121477;27;19949;-47
2022/05/23 14:35:18;;;;;;;;;;;20.80;67.10;;;;;;5128202;28;19924;-47
2022/05/23 14:37:48;;;;;;;;;;;21.60;69.90;;;;;;5087583;28;19923;-55
2022/05/23 14:40:14;;;;;;;;;;;21.80;68.80;;;;;;5103749;28;19935;-47
2022/05/23 14:42:44;;;;;;;;;;;21.10;68.10;;;;;;5107318;28;20298;-48
2022/05/23 14:45:17;;;;;;;;;;;21.00;66.30;;;;;;5102969;28;20015;-48
2022/05/23 14:47:53;;;;;;;;;;;20.80;65.90;;;;;;5122116;28;20636;-48
2022/05/23 14:50:20;;;;;;;;;;;21.20;64.10;;;;;;5109956;28;19948;-47
2022/05/23 14:52:47;;;;;;;;;;;21.10;63.60;;;;;;5122392;28;19923;-49
2022/05/23 14:55:22;;;;;;;;;;;21.10;63.10;;;;;;5125710;28;19923;-55
2022/05/23 15:00:42;;;;;;;;;;;21.20;62.10;;;;;;5104924;28;19927;-48
2022/05/23 15:03:09;;;;;;;;;;;21.30;61.60;;;;;;5102790;28;19927;-49
2022/05/23 15:05:35;;;;;;;;;;;21.20;61.70;;;;;;5127335;28;20424;-46
2022/05/23 15:08:01;;;;;;;;;;;21.20;61.50;;;;;;5122285;28;19931;-43
2022/05/23 15:10:30;;;;;;;;;;;21.30;61.00;;;;;;5127641;28;20224;-46
2022/05/23 15:12:55;;;;;;;;;;;21.10;61.50;;;;;;5103888;28;20320;-44
2022/05/23 15:15:21;;;;;;;;;;;21.20;61.60;;;;;;5122470;28;19930;-45
2022/05/23 15:17:47;;;;;;;;;;;21.10;61.40;;;;;;5127288;28;20354;-48
2022/05/23 15:20:13;;;;;;;;;;;21.10;61.40;;;;;;5100998;28;20014;-47
2022/05/23 15:22:41;;;;;;;;;;;21.20;61.10;;;;;;5121237;28;20003;-46
2022/05/23 15:25:09;;;;;;;;;;;21.20;61.10;;;;;;5127068;28;19923;-47
2022/05/23 15:27:35;;;;;;;;;;;21.00;61.20;;;;;;5122122;28;20293;-46
2022/05/23 15:30:02;;;;;;;;;;;21.20;61.00;;;;;;5125675;28;19945;-55
2022/05/23 15:32:28;;;;;;;;;;;21.10;61.20;;;;;;5124543;28;19975;-45
2022/05/23 15:34:54;;;;;;;;;;;21.00;61.50;;;;;;5121896;28;19930;-46